Rochelle, Georgia
Current Conditions -  °F | °C
As of 5:55 PM on Tuesday 27 Jan 2015 (Local Time) from KCKF Reporting Station
Clear Clear  
Wind Chill: 55°   Ceiling: Unl
Heat Index: 55°   Visibility: 10mi
Dew Point: 29°   Wind: 7mph
Humidity: 38%   Direction: 350°N
Pressure: 30"   Gusts: NA
Location:  31.95°N, 83.46°W
Report Text: KCKF 272255Z AUTO 35006KT 10SM CLR 13/M01 A3000 RMK AO2 T01271014
Loading
Personal Weather Stations






























Interactive Weather Map New forecast layout! Learn more

10-Day Weather Forecast

Advertisements
Track Severe Weather on mobile